Time;durP1;ratioP1;P1;durP2;ratioP2;P2;SDS_P1;SDS_P2;PMS_P1;PMS_P2;Temp;Humidity;BMP_temperature;BMP_pressure;BME280_temperature;BME280_humidity;BME280_pressure;Samples;Min_cycle;Max_cycle;Signal;HPM_P1;HPM_P2
2024/01/30 00:01:49;;;;;;;33.90;18.77;;;6.80;99.90;;;;;;4937330;29;20031;-77
2024/01/30 00:04:16;;;;;;;33.80;18.70;;;6.80;99.90;;;;;;4938676;29;20038;-77
2024/01/30 00:06:42;;;;;;;35.22;18.52;;;6.80;99.90;;;;;;4938338;29;20045;-77
2024/01/30 00:09:08;;;;;;;31.88;18.20;;;6.70;99.90;;;;;;4938592;29;20067;-77
2024/01/30 00:11:34;;;;;;;33.97;18.27;;;6.80;99.90;;;;;;4955383;28;20134;-77
2024/01/30 00:14:00;;;;;;;38.15;19.17;;;6.80;99.90;;;;;;4956223;29;20043;-76
2024/01/30 00:16:26;;;;;;;35.20;19.13;;;6.70;99.90;;;;;;4956096;28;20043;-76
2024/01/30 00:18:52;;;;;;;33.15;18.67;;;6.70;99.90;;;;;;4955180;28;20039;-77
2024/01/30 00:21:18;;;;;;;32.85;18.48;;;6.80;99.90;;;;;;4955944;28;20033;-76
2024/01/30 00:23:44;;;;;;;36.72;18.85;;;6.50;99.90;;;;;;4938263;29;20031;-77
2024/01/30 00:26:11;;;;;;;32.90;18.23;;;6.50;99.90;;;;;;4938380;29;20058;-77
2024/01/30 00:28:37;;;;;;;30.92;18.20;;;6.50;99.90;;;;;;4955760;28;20023;-77
2024/01/30 00:31:03;;;;;;;35.40;18.38;;;6.50;99.90;;;;;;4937737;29;20081;-77
2024/01/30 00:33:28;;;;;;;32.33;18.13;;;6.50;99.90;;;;;;4955625;28;20064;-78
2024/01/30 00:35:54;;;;;;;34.78;19.77;;;6.40;99.90;;;;;;4955239;29;20027;-78
2024/01/30 00:38:19;;;;;;;35.58;18.52;;;6.50;99.90;;;;;;4955060;29;20035;-78
2024/01/30 00:40:45;;;;;;;31.05;17.52;;;6.40;99.90;;;;;;4938401;29;20043;-77
2024/01/30 00:43:10;;;;;;;35.22;18.63;;;6.40;99.90;;;;;;4938459;28;20673;-77
2024/01/30 00:45:36;;;;;;;30.08;17.63;;;6.30;99.90;;;;;;4937996;29;20028;-77
2024/01/30 00:48:01;;;;;;;30.55;17.92;;;6.20;99.90;;;;;;4954501;28;20031;-79
2024/01/30 00:50:27;;;;;;;33.60;18.95;;;6.30;99.90;;;;;;4955134;28;20469;-77
2024/01/30 00:52:53;;;;;;;32.05;17.95;;;6.30;99.90;;;;;;4937690;28;20047;-77
2024/01/30 00:55:18;;;;;;;32.80;17.88;;;6.20;99.90;;;;;;4938282;29;20119;-80
2024/01/30 00:57:44;;;;;;;36.55;18.50;;;6.30;99.90;;;;;;4955115;29;20050;-76
2024/01/30 01:00:10;;;;;;;33.83;19.38;;;6.20;99.90;;;;;;4937756;29;20094;-77
2024/01/30 01:02:36;;;;;;;36.10;19.15;;;6.20;99.90;;;;;;4937816;28;20039;-77
2024/01/30 01:05:02;;;;;;;31.95;18.27;;;6.20;99.90;;;;;;4937573;29;20019;-77
2024/01/30 01:07:27;;;;;;;35.53;18.33;;;6.20;99.90;;;;;;4954279;28;20027;-77
2024/01/30 01:09:53;;;;;;;32.97;18.55;;;6.20;99.90;;;;;;4936947;29;20516;-76
2024/01/30 01:12:18;;;;;;;32.78;17.80;;;6.10;99.90;;;;;;4955222;28;20036;-77
2024/01/30 01:14:44;;;;;;;34.15;18.60;;;6.10;99.90;;;;;;4937797;29;20067;-79
2024/01/30 01:17:10;;;;;;;36.20;17.90;;;6.10;99.90;;;;;;4954904;28;20043;-78
2024/01/30 01:19:35;;;;;;;33.53;16.88;;;6.00;99.90;;;;;;4937759;29;20019;-78
2024/01/30 01:22:01;;;;;;;30.63;16.48;;;6.10;99.90;;;;;;4954138;28;20491;-78
2024/01/30 01:24:26;;;;;;;32.47;17.42;;;6.00;99.90;;;;;;4954879;28;20032;-77
2024/01/30 01:26:52;;;;;;;34.72;18.30;;;5.90;99.90;;;;;;4937786;29;20027;-77
2024/01/30 01:29:17;;;;;;;32.83;18.00;;;5.90;99.90;;;;;;4954801;28;20027;-78
2024/01/30 01:31:43;;;;;;;32.75;17.40;;;6.00;99.90;;;;;;4954948;29;20468;-78
2024/01/30 01:34:12;;;;;;;30.70;17.17;;;5.90;99.90;;;;;;4937086;29;20022;-77
2024/01/30 01:36:38;;;;;;;33.10;17.45;;;6.00;99.90;;;;;;4936764;29;20044;-77
2024/01/30 01:39:04;;;;;;;30.83;16.95;;;5.90;99.90;;;;;;4955569;28;20112;-78
2024/01/30 01:41:31;;;;;;;29.38;16.40;;;5.90;99.90;;;;;;4953645;28;20039;-78
2024/01/30 01:43:57;;;;;;;31.58;16.85;;;5.80;99.90;;;;;;4937085;29;20055;-77
2024/01/30 01:46:23;;;;;;;32.20;16.67;;;5.90;99.90;;;;;;4954157;28;20035;-77
2024/01/30 01:48:49;;;;;;;32.13;17.60;;;5.90;99.90;;;;;;4936624;29;20114;-78
2024/01/30 01:51:16;;;;;;;29.67;17.02;;;6.00;99.90;;;;;;4954294;28;20035;-78
2024/01/30 01:53:42;;;;;;;32.80;18.15;;;5.80;99.90;;;;;;4937051;29;20027;-76
2024/01/30 01:56:09;;;;;;;33.05;18.25;;;5.90;99.90;;;;;;4936534;29;20046;-77
2024/01/30 01:58:36;;;;;;;33.15;16.40;;;5.80;99.90;;;;;;4936721;28;20082;-77
2024/01/30 02:01:03;;;;;;;34.38;17.23;;;5.80;99.90;;;;;;4953786;28;20039;-77
2024/01/30 02:03:30;;;;;;;30.00;17.00;;;5.80;99.90;;;;;;4953585;28;20026;-77
2024/01/30 02:05:56;;;;;;;29.58;16.35;;;5.80;99.90;;;;;;4953766;28;20475;-77
2024/01/30 02:08:22;;;;;;;33.42;17.05;;;5.80;99.90;;;;;;4953401;28;20067;-79
2024/01/30 02:10:47;;;;;;;30.35;16.92;;;5.80;99.90;;;;;;4936930;29;20027;-78
2024/01/30 02:13:13;;;;;;;30.33;17.35;;;5.70;99.90;;;;;;4936321;28;20496;-78
2024/01/30 02:15:38;;;;;;;29.70;17.40;;;5.80;99.90;;;;;;4936947;29;20132;-78
2024/01/30 02:18:04;;;;;;;29.38;17.38;;;5.70;99.90;;;;;;4936366;28;20062;-77
2024/01/30 02:20:31;;;;;;;32.53;17.30;;;5.70;99.90;;;;;;4953896;28;20023;-76
2024/01/30 02:23:01;;;;;;;29.52;16.73;;;5.70;99.90;;;;;;4953357;28;20091;-78
2024/01/30 02:25:43;;;;;;;34.78;17.33;;;5.70;99.90;;;;;;4953308;28;20023;-77
2024/01/30 02:28:13;;;;;;;29.85;16.83;;;5.80;99.90;;;;;;4936637;29;20146;-78
2024/01/30 02:30:45;;;;;;;29.88;16.83;;;5.70;99.90;;;;;;4952698;28;20507;-78
2024/01/30 02:33:10;;;;;;;30.67;16.80;;;5.60;99.90;;;;;;4936184;29;20122;-77
2024/01/30 02:35:36;;;;;;;30.20;17.10;;;5.60;99.90;;;;;;4953656;28;20027;-77
2024/01/30 02:38:01;;;;;;;29.35;17.00;;;5.70;99.90;;;;;;4935875;29;20035;-78
2024/01/30 02:40:27;;;;;;;32.35;17.17;;;5.50;99.90;;;;;;4936530;29;20032;-78
2024/01/30 02:42:53;;;;;;;33.38;17.42;;;5.70;99.90;;;;;;4936481;29;20024;-77
2024/01/30 02:45:18;;;;;;;33.25;18.10;;;5.50;99.90;;;;;;4936047;29;20019;-78
2024/01/30 02:47:44;;;;;;;30.08;16.83;;;5.50;99.90;;;;;;4953614;29;20027;-78
2024/01/30 02:50:10;;;;;;;31.88;17.05;;;5.50;99.90;;;;;;4953466;28;20034;-78
2024/01/30 02:52:35;;;;;;;29.98;16.90;;;5.40;99.90;;;;;;4953531;28;20028;-78
2024/01/30 02:55:01;;;;;;;30.00;17.50;;;5.30;99.90;;;;;;4936123;29;20687;-78
2024/01/30 02:57:28;;;;;;;28.83;16.52;;;5.30;99.90;;;;;;4935914;29;20035;-77
2024/01/30 02:59:54;;;;;;;34.30;17.05;;;5.20;99.90;;;;;;4936245;29;20028;-77
2024/01/30 03:02:19;;;;;;;31.90;17.92;;;5.20;99.90;;;;;;4953530;28;20034;-77
2024/01/30 03:04:45;;;;;;;32.22;17.42;;;5.20;99.90;;;;;;4953069;29;20027;-78
2024/01/30 03:07:11;;;;;;;35.78;18.27;;;5.20;99.90;;;;;;4935836;29;20023;-78
2024/01/30 03:09:37;;;;;;;34.47;17.45;;;5.10;99.90;;;;;;4952903;28;20043;-77
2024/01/30 03:12:03;;;;;;;33.42;17.15;;;5.10;99.90;;;;;;4938058;29;20036;-77
2024/01/30 03:14:31;;;;;;;27.92;16.25;;;5.00;99.90;;;;;;4957022;28;20030;-77
2024/01/30 03:16:56;;;;;;;34.65;17.25;;;5.00;99.90;;;;;;4957146;28;20047;-77
2024/01/30 03:19:22;;;;;;;35.00;17.38;;;5.00;99.90;;;;;;4939053;29;20026;-78
2024/01/30 03:21:48;;;;;;;34.08;18.02;;;5.00;99.90;;;;;;4940239;28;20032;-77
2024/01/30 03:24:13;;;;;;;34.08;17.67;;;5.10;99.90;;;;;;4956829;28;20032;-78
2024/01/30 03:26:39;;;;;;;38.38;18.95;;;5.10;99.90;;;;;;4939114;28;20059;-78
2024/01/30 03:29:04;;;;;;;32.10;17.92;;;5.10;99.90;;;;;;4939680;28;20138;-78
2024/01/30 03:31:30;;;;;;;33.80;17.95;;;5.10;99.90;;;;;;4939481;29;20039;-79
2024/01/30 03:33:55;;;;;;;31.48;17.73;;;5.20;99.90;;;;;;4939224;28;20067;-78
2024/01/30 03:36:21;;;;;;;30.85;17.13;;;5.20;99.90;;;;;;4956625;28;20039;-78
2024/01/30 03:38:46;;;;;;;29.58;17.52;;;5.20;99.90;;;;;;4956897;29;20035;-78
2024/01/30 03:41:12;;;;;;;33.17;18.23;;;5.20;99.90;;;;;;4939027;29;20027;-77
2024/01/30 03:43:38;;;;;;;32.80;17.00;;;5.20;99.90;;;;;;4939521;29;20457;-78
2024/01/30 03:46:03;;;;;;;33.58;17.92;;;5.20;99.90;;;;;;4939318;29;20027;-77
2024/01/30 03:48:29;;;;;;;35.22;17.45;;;5.20;99.90;;;;;;4954960;29;20031;-78
2024/01/30 03:50:55;;;;;;;31.20;16.40;;;5.20;99.90;;;;;;4955634;28;20028;-78
2024/01/30 03:53:21;;;;;;;32.35;17.60;;;5.20;99.90;;;;;;4938131;28;20030;-78
2024/01/30 03:55:47;;;;;;;33.63;18.15;;;5.20;99.90;;;;;;4939437;29;20023;-77
2024/01/30 03:58:12;;;;;;;34.83;18.08;;;5.20;99.90;;;;;;4937880;29;20047;-77
2024/01/30 04:00:38;;;;;;;32.33;18.38;;;5.20;99.90;;;;;;4939528;28;20051;-77
2024/01/30 04:03:04;;;;;;;32.53;18.85;;;5.20;99.90;;;;;;4955975;28;20019;-77
2024/01/30 04:05:29;;;;;;;34.45;18.60;;;5.30;99.90;;;;;;4938856;29;20171;-77
2024/01/30 04:07:55;;;;;;;30.17;17.48;;;5.30;99.90;;;;;;4955677;28;20024;-79
2024/01/30 04:10:20;;;;;;;34.20;18.13;;;5.30;99.90;;;;;;4955892;28;20031;-78
2024/01/30 04:12:46;;;;;;;37.38;18.27;;;5.30;99.90;;;;;;4938842;29;20035;-77
2024/01/30 04:15:13;;;;;;;37.33;18.90;;;5.30;99.90;;;;;;4938545;29;20127;-77
2024/01/30 04:17:39;;;;;;;36.25;18.83;;;5.30;99.90;;;;;;4955594;28;20046;-77
2024/01/30 04:20:05;;;;;;;34.78;17.88;;;5.30;99.90;;;;;;4938876;28;20087;-77
2024/01/30 04:22:31;;;;;;;31.88;18.05;;;5.30;99.90;;;;;;4936704;28;20110;-77
2024/01/30 04:24:56;;;;;;;34.92;19.33;;;5.30;99.90;;;;;;4938132;29;20470;-78
2024/01/30 04:27:22;;;;;;;39.67;20.05;;;5.30;99.90;;;;;;4956110;28;20024;-77
2024/01/30 04:29:47;;;;;;;36.05;19.17;;;5.30;99.90;;;;;;4938708;29;20020;-77
2024/01/30 04:32:13;;;;;;;35.95;19.05;;;5.30;99.90;;;;;;4955397;29;20028;-77
2024/01/30 04:34:39;;;;;;;35.33;18.33;;;5.30;99.90;;;;;;4937782;29;20063;-77
2024/01/30 04:37:04;;;;;;;36.72;19.55;;;5.30;99.90;;;;;;4938700;29;20476;-77
2024/01/30 04:39:30;;;;;;;34.83;19.38;;;5.30;99.90;;;;;;4938745;29;20027;-76
2024/01/30 04:41:55;;;;;;;36.88;18.15;;;5.20;99.90;;;;;;4938443;29;20067;-77
2024/01/30 04:44:21;;;;;;;37.42;19.23;;;5.20;99.90;;;;;;4937710;29;20057;-79
2024/01/30 04:46:47;;;;;;;37.35;18.90;;;5.20;99.90;;;;;;4938305;29;20114;-77
2024/01/30 04:49:12;;;;;;;36.67;19.13;;;5.10;99.90;;;;;;4938066;29;20027;-78
2024/01/30 04:51:38;;;;;;;38.15;19.08;;;5.10;99.90;;;;;;4937414;28;20091;-77
2024/01/30 04:54:03;;;;;;;36.60;19.02;;;5.10;99.90;;;;;;4938107;28;20019;-76
2024/01/30 04:56:29;;;;;;;35.95;18.98;;;5.10;99.90;;;;;;4936914;28;20043;-77
2024/01/30 04:58:54;;;;;;;35.38;18.83;;;5.10;99.90;;;;;;4937165;29;20042;-77
2024/01/30 05:01:23;;;;;;;37.65;19.70;;;5.10;99.90;;;;;;4955201;28;20432;-76
2024/01/30 05:03:49;;;;;;;35.97;19.55;;;5.00;99.90;;;;;;4936938;29;20409;-76
2024/01/30 05:06:24;;;;;;;33.70;18.38;;;5.00;99.90;;;;;;4954434;28;20035;-78
2024/01/30 05:08:50;;;;;;;42.08;20.17;;;5.00;99.90;;;;;;4953867;28;20074;-79
2024/01/30 05:11:15;;;;;;;34.92;19.52;;;5.10;99.90;;;;;;4954536;28;20035;-77
2024/01/30 05:13:41;;;;;;;38.25;20.42;;;5.00;99.90;;;;;;4954524;29;20039;-78
2024/01/30 05:16:06;;;;;;;34.10;19.85;;;5.00;99.90;;;;;;4954531;28;20024;-78
2024/01/30 05:18:32;;;;;;;35.08;19.35;;;5.00;99.90;;;;;;4937328;29;20055;-78
2024/01/30 05:20:57;;;;;;;38.95;19.15;;;5.00;99.90;;;;;;4938387;28;20039;-78
2024/01/30 05:23:23;;;;;;;37.80;19.95;;;5.10;99.90;;;;;;4937512;29;20058;-79
2024/01/30 05:25:48;;;;;;;39.08;19.98;;;4.90;99.90;;;;;;4936964;29;20031;-80
2024/01/30 05:28:14;;;;;;;41.10;20.60;;;5.00;99.90;;;;;;4954044;28;20028;-79
2024/01/30 05:30:40;;;;;;;38.95;19.70;;;5.00;99.90;;;;;;4938880;29;20090;-78
2024/01/30 05:33:05;;;;;;;38.63;20.30;;;5.00;99.90;;;;;;4953695;29;20437;-78
2024/01/30 05:35:31;;;;;;;36.30;20.02;;;5.00;99.90;;;;;;4936851;29;20019;-77
2024/01/30 05:37:56;;;;;;;36.53;19.25;;;4.90;99.90;;;;;;4938460;29;20050;-82
2024/01/30 05:40:22;;;;;;;37.15;19.40;;;4.90;99.90;;;;;;4936643;28;20536;-78
2024/01/30 05:42:48;;;;;;;44.20;21.33;;;4.90;99.90;;;;;;4953708;28;20035;-80
2024/01/30 05:45:14;;;;;;;41.60;20.98;;;4.90;99.90;;;;;;4936910;28;20044;-79
2024/01/30 05:47:39;;;;;;;43.15;20.67;;;4.90;99.90;;;;;;4954192;28;20031;-78
2024/01/30 05:50:06;;;;;;;43.30;20.55;;;4.90;99.90;;;;;;4954509;28;20038;-79
2024/01/30 05:52:31;;;;;;;42.70;20.17;;;4.90;99.90;;;;;;4953665;28;20051;-77
2024/01/30 05:54:57;;;;;;;42.60;21.08;;;4.90;99.90;;;;;;4937156;29;20020;-79
2024/01/30 05:57:22;;;;;;;37.42;19.45;;;4.90;99.90;;;;;;4936981;29;20044;-80
2024/01/30 05:59:48;;;;;;;40.22;21.50;;;4.90;99.90;;;;;;4936809;29;20035;-78
2024/01/30 06:02:14;;;;;;;38.35;21.02;;;4.90;99.90;;;;;;4936896;29;20028;-80
2024/01/30 06:04:39;;;;;;;36.20;19.80;;;4.90;99.90;;;;;;4937221;28;20038;-77
2024/01/30 06:07:06;;;;;;;36.00;19.40;;;4.90;99.90;;;;;;4952198;28;20035;-79
2024/01/30 06:09:32;;;;;;;35.90;19.63;;;4.90;99.90;;;;;;4936047;29;20048;-78
2024/01/30 06:11:57;;;;;;;35.53;19.52;;;4.90;99.90;;;;;;4954132;28;20026;-79
2024/01/30 06:14:23;;;;;;;41.53;20.42;;;4.90;99.90;;;;;;4953586;28;20693;-78
2024/01/30 06:16:49;;;;;;;39.15;20.42;;;4.90;99.90;;;;;;4936761;29;20036;-77
2024/01/30 06:19:14;;;;;;;40.67;20.52;;;4.90;99.90;;;;;;4953784;28;20048;-78
2024/01/30 06:21:40;;;;;;;39.58;21.35;;;5.00;99.90;;;;;;4952689;28;20034;-78
2024/01/30 06:24:05;;;;;;;39.70;21.48;;;4.90;99.90;;;;;;4936084;28;20054;-79
2024/01/30 06:26:31;;;;;;;50.40;22.77;;;4.90;99.90;;;;;;4953726;28;20030;-79
2024/01/30 06:28:56;;;;;;;38.45;20.77;;;5.00;99.90;;;;;;4936295;29;20027;-79
2024/01/30 06:31:22;;;;;;;42.53;21.02;;;4.90;99.90;;;;;;4936152;29;20028;-79
2024/01/30 06:33:48;;;;;;;42.15;21.23;;;4.90;99.90;;;;;;4936757;28;20023;-78
2024/01/30 06:36:14;;;;;;;38.88;20.83;;;5.00;99.90;;;;;;4935411;29;20079;-79
2024/01/30 06:38:41;;;;;;;43.15;22.63;;;5.00;99.90;;;;;;4936159;29;20031;-78
2024/01/30 06:41:07;;;;;;;40.47;20.85;;;4.90;99.90;;;;;;4936192;29;20035;-78
2024/01/30 06:43:32;;;;;;;40.00;22.08;;;5.00;99.90;;;;;;4935391;28;20024;-78
2024/01/30 06:45:59;;;;;;;41.05;20.92;;;5.00;99.90;;;;;;4935629;29;20079;-79
2024/01/30 06:48:25;;;;;;;41.67;21.13;;;5.00;99.90;;;;;;4952966;28;20026;-79
2024/01/30 06:50:53;;;;;;;47.42;21.83;;;5.00;99.90;;;;;;4936568;29;20058;-79
2024/01/30 06:53:20;;;;;;;43.83;22.42;;;5.00;99.90;;;;;;4935542;29;20070;-79
2024/01/30 06:55:45;;;;;;;45.90;23.15;;;5.00;99.90;;;;;;4935300;29;20051;-78
2024/01/30 06:58:11;;;;;;;42.33;21.77;;;5.00;99.90;;;;;;4935624;29;20031;-79
2024/01/30 07:00:37;;;;;;;41.33;21.60;;;5.00;99.90;;;;;;4935655;29;20488;-79
2024/01/30 07:03:02;;;;;;;40.70;20.73;;;5.00;99.90;;;;;;4952632;29;20068;-79
2024/01/30 07:05:28;;;;;;;41.55;21.65;;;5.00;99.90;;;;;;4935405;29;20067;-79
2024/01/30 07:07:54;;;;;;;38.28;21.25;;;5.10;99.90;;;;;;4952959;28;20032;-78
2024/01/30 07:10:20;;;;;;;45.05;22.20;;;5.10;99.90;;;;;;4934032;29;20020;-79
2024/01/30 07:12:45;;;;;;;46.65;25.20;;;5.10;99.90;;;;;;4935944;29;20023;-78
2024/01/30 07:15:11;;;;;;;41.80;21.45;;;5.10;99.90;;;;;;4936203;29;20043;-78
2024/01/30 07:17:37;;;;;;;42.00;21.48;;;5.10;99.90;;;;;;4935931;29;20044;-78
2024/01/30 07:20:06;;;;;;;41.67;23.15;;;5.10;99.90;;;;;;4952873;28;20019;-78
2024/01/30 07:22:35;;;;;;;40.65;21.05;;;5.10;99.90;;;;;;4935655;29;20047;-79
2024/01/30 07:25:00;;;;;;;41.97;22.08;;;5.10;99.90;;;;;;4952886;28;20028;-79
2024/01/30 07:27:26;;;;;;;42.38;21.15;;;5.20;99.90;;;;;;4951490;28;20748;-79
2024/01/30 07:29:51;;;;;;;57.03;26.92;;;5.20;99.90;;;;;;4952272;29;20024;-80
2024/01/30 07:32:20;;;;;;;46.17;23.08;;;5.20;99.90;;;;;;4949826;28;20032;-79
2024/01/30 07:34:45;;;;;;;55.20;28.98;;;5.20;99.90;;;;;;4934983;29;20035;-79
2024/01/30 07:37:15;;;;;;;45.45;24.42;;;5.20;99.90;;;;;;4951289;28;20090;-80
2024/01/30 07:39:41;;;;;;;45.20;23.20;;;5.20;99.90;;;;;;4950873;28;20019;-80
2024/01/30 07:42:06;;;;;;;40.70;22.33;;;5.20;99.90;;;;;;4951302;28;20070;-79
2024/01/30 07:44:32;;;;;;;43.72;23.35;;;5.20;99.90;;;;;;4950678;29;20019;-80
2024/01/30 07:46:57;;;;;;;41.38;22.92;;;5.30;99.90;;;;;;4953071;28;20027;-78
2024/01/30 07:49:23;;;;;;;43.47;22.30;;;5.20;99.90;;;;;;4950439;28;20028;-78
2024/01/30 07:51:48;;;;;;;41.17;22.90;;;5.30;99.90;;;;;;4951238;28;20087;-77
2024/01/30 07:54:14;;;;;;;46.50;23.20;;;5.30;99.90;;;;;;4935196;29;20031;-79
2024/01/30 07:56:39;;;;;;;42.60;22.35;;;5.30;99.90;;;;;;4951844;29;20039;-78
2024/01/30 07:59:05;;;;;;;46.63;22.83;;;5.40;99.90;;;;;;4954981;28;20032;-78
2024/01/30 08:01:30;;;;;;;39.35;22.13;;;5.40;99.90;;;;;;4936288;29;20032;-78
2024/01/30 08:03:56;;;;;;;43.10;22.08;;;5.40;99.90;;;;;;4937420;29;20164;-79
2024/01/30 08:06:22;;;;;;;44.45;22.85;;;5.50;99.90;;;;;;4955968;28;20023;-78
2024/01/30 08:08:47;;;;;;;46.00;25.83;;;5.50;99.90;;;;;;4943878;29;21168;-78
2024/01/30 08:11:13;;;;;;;40.78;22.98;;;5.50;99.90;;;;;;4933493;29;20028;-79
2024/01/30 08:13:38;;;;;;;42.70;23.17;;;5.50;99.90;;;;;;4938696;28;20035;-79
2024/01/30 08:16:04;;;;;;;40.20;21.63;;;5.60;99.90;;;;;;4939265;29;20031;-79
2024/01/30 08:18:30;;;;;;;43.80;22.42;;;5.60;99.90;;;;;;4955660;29;20051;-79
2024/01/30 08:20:55;;;;;;;42.42;22.77;;;5.60;99.90;;;;;;4938203;29;20028;-80
2024/01/30 08:23:21;;;;;;;43.30;22.27;;;5.70;99.90;;;;;;4936874;29;20110;-79
2024/01/30 08:25:47;;;;;;;42.40;22.85;;;5.70;99.90;;;;;;4935424;29;20062;-79
2024/01/30 08:28:12;;;;;;;42.83;20.42;;;5.70;99.90;;;;;;4933813;29;20027;-79
2024/01/30 08:30:39;;;;;;;42.63;21.98;;;5.70;99.90;;;;;;4938148;28;20019;-80
2024/01/30 08:33:05;;;;;;;43.17;21.20;;;5.80;99.90;;;;;;4935598;29;20028;-79
2024/01/30 08:35:33;;;;;;;45.42;22.55;;;5.80;99.90;;;;;;4953221;28;20034;-79
2024/01/30 08:37:59;;;;;;;38.85;22.05;;;5.90;99.90;;;;;;4937139;29;20043;-78
2024/01/30 08:40:24;;;;;;;38.92;21.27;;;5.90;99.90;;;;;;4936996;28;20024;-79
2024/01/30 08:42:50;;;;;;;37.97;20.85;;;6.00;99.90;;;;;;4938337;29;20062;-79
2024/01/30 08:45:15;;;;;;;43.08;21.90;;;6.00;99.90;;;;;;4938076;29;20035;-78
2024/01/30 08:47:41;;;;;;;40.95;22.10;;;6.00;99.90;;;;;;4938313;29;20047;-79
2024/01/30 08:50:07;;;;;;;38.30;21.42;;;6.10;99.90;;;;;;4953418;28;20031;-78
2024/01/30 08:52:34;;;;;;;44.08;21.83;;;6.10;99.90;;;;;;4954359;28;20024;-78
2024/01/30 08:55:00;;;;;;;44.45;21.83;;;6.20;99.90;;;;;;4952992;29;20031;-79
2024/01/30 08:57:28;;;;;;;38.45;21.60;;;6.20;99.90;;;;;;4951105;28;20040;-78
2024/01/30 08:59:54;;;;;;;44.40;22.00;;;6.30;99.90;;;;;;4951463;28;20027;-80
2024/01/30 09:02:19;;;;;;;37.83;20.80;;;6.30;99.90;;;;;;4935530;29;20062;-79
2024/01/30 09:04:45;;;;;;;42.47;21.55;;;6.50;99.90;;;;;;4933501;29;20055;-77
2024/01/30 09:07:12;;;;;;;40.60;22.08;;;6.40;99.90;;;;;;4952077;28;20121;-79
2024/01/30 09:09:39;;;;;;;40.22;21.30;;;6.50;99.90;;;;;;4950724;28;20051;-78
2024/01/30 09:12:08;;;;;;;41.65;20.17;;;6.50;99.90;;;;;;4931793;29;20031;-80
2024/01/30 09:14:33;;;;;;;37.42;20.67;;;6.60;99.90;;;;;;4934740;29;20055;-79
2024/01/30 09:16:59;;;;;;;42.67;21.58;;;6.60;99.90;;;;;;4953815;28;20421;-79
2024/01/30 09:19:24;;;;;;;45.08;22.17;;;6.60;99.90;;;;;;4937621;29;20023;-79
2024/01/30 09:21:50;;;;;;;39.28;19.90;;;6.70;99.90;;;;;;4951468;28;20046;-78
2024/01/30 09:24:15;;;;;;;38.33;20.58;;;6.60;99.90;;;;;;4938536;29;20624;-78
2024/01/30 09:26:41;;;;;;;42.70;20.88;;;6.60;99.90;;;;;;4934043;29;20054;-78
2024/01/30 09:29:07;;;;;;;36.13;20.23;;;6.80;99.90;;;;;;4949059;28;20594;-79
2024/01/30 09:31:32;;;;;;;38.53;21.10;;;6.80;99.90;;;;;;4952037;28;20022;-78
2024/01/30 09:33:58;;;;;;;39.45;19.55;;;6.80;99.90;;;;;;4951711;28;20424;-79
2024/01/30 09:36:24;;;;;;;43.72;21.67;;;6.90;99.90;;;;;;4952743;29;20034;-78
2024/01/30 09:38:49;;;;;;;41.83;20.35;;;6.90;99.90;;;;;;4954062;29;20028;-79
2024/01/30 09:41:16;;;;;;;40.40;20.08;;;7.00;99.90;;;;;;4937080;29;20023;-77
2024/01/30 09:43:48;;;;;;;37.92;19.58;;;7.10;99.90;;;;;;4951393;28;20416;-79
2024/01/30 09:46:16;;;;;;;42.38;20.75;;;7.10;99.90;;;;;;4935730;28;20550;-80
2024/01/30 09:48:42;;;;;;;41.40;20.35;;;7.20;99.90;;;;;;4952721;28;20134;-78
2024/01/30 09:51:09;;;;;;;40.85;19.95;;;7.20;99.90;;;;;;4953321;28;20038;-79
2024/01/30 09:53:37;;;;;;;37.40;21.17;;;7.20;99.90;;;;;;4937243;29;20027;-78
2024/01/30 09:56:04;;;;;;;37.38;20.08;;;7.30;99.90;;;;;;4935507;29;20032;-77
2024/01/30 09:58:29;;;;;;;36.20;20.15;;;7.30;99.90;;;;;;4935175;28;20043;-78
2024/01/30 10:00:55;;;;;;;40.63;19.52;;;7.40;99.90;;;;;;4936437;29;20043;-80
2024/01/30 10:03:20;;;;;;;35.25;19.90;;;7.40;99.90;;;;;;4935084;28;20031;-80
2024/01/30 10:05:54;;;;;;;36.28;20.35;;;7.50;99.90;;;;;;4936697;29;20130;-77
2024/01/30 10:08:21;;;;;;;33.58;19.20;;;7.50;99.90;;;;;;4936470;29;20043;-79
2024/01/30 10:10:50;;;;;;;40.35;19.13;;;7.60;99.90;;;;;;4935675;29;20043;-77
2024/01/30 10:13:16;;;;;;;35.00;18.60;;;7.70;99.90;;;;;;4937060;29;20039;-77
2024/01/30 10:15:41;;;;;;;32.40;18.02;;;7.70;99.90;;;;;;4952887;28;20039;-78
2024/01/30 10:18:09;;;;;;;35.22;18.30;;;7.80;99.90;;;;;;4952855;28;20048;-80
2024/01/30 10:20:35;;;;;;;34.03;18.92;;;7.80;99.90;;;;;;4953327;28;20022;-79
2024/01/30 10:23:02;;;;;;;35.17;18.67;;;7.80;99.90;;;;;;4936525;29;20035;-78
2024/01/30 10:25:27;;;;;;;39.60;19.52;;;7.90;99.90;;;;;;4953313;28;20016;-79
2024/01/30 10:27:56;;;;;;;36.38;19.30;;;7.90;99.90;;;;;;4936578;29;20110;-78
2024/01/30 10:30:22;;;;;;;45.25;22.60;;;8.00;99.90;;;;;;4953593;29;20095;-78
2024/01/30 10:32:48;;;;;;;42.70;21.00;;;8.00;99.90;;;;;;4952132;28;20035;-78
2024/01/30 10:35:14;;;;;;;35.67;19.42;;;8.00;99.90;;;;;;4937415;28;20027;-81
2024/01/30 10:37:43;;;;;;;33.00;17.35;;;8.10;99.90;;;;;;4950785;28;20609;-75
2024/01/30 10:40:12;;;;;;;35.53;18.58;;;8.10;99.90;;;;;;4951140;28;20027;-77
2024/01/30 10:42:42;;;;;;;36.05;18.85;;;8.20;99.90;;;;;;4933195;29;20039;-78
2024/01/30 10:45:08;;;;;;;34.92;19.40;;;8.20;99.90;;;;;;4936282;29;20055;-78
2024/01/30 10:47:39;;;;;;;35.08;17.95;;;8.30;99.90;;;;;;4947714;28;20476;-80
2024/01/30 10:50:05;;;;;;;36.88;18.00;;;8.40;99.90;;;;;;4934709;28;20121;-79
2024/01/30 10:52:32;;;;;;;34.80;19.13;;;8.50;99.90;;;;;;4933717;29;20233;-80
2024/01/30 10:55:06;;;;;;;31.15;18.15;;;8.60;99.90;;;;;;4935609;29;20023;-81
2024/01/30 10:57:36;;;;;;;33.70;18.20;;;8.70;99.90;;;;;;4932834;29;20094;-78
2024/01/30 11:00:11;;;;;;;28.63;17.77;;;8.80;99.90;;;;;;4935143;28;20465;-79
2024/01/30 11:02:39;;;;;;;33.70;17.15;;;8.90;99.90;;;;;;4930299;29;20031;-79
2024/01/30 11:05:08;;;;;;;32.90;17.85;;;9.00;99.90;;;;;;4933258;29;20028;-77
2024/01/30 11:07:34;;;;;;;35.03;17.98;;;9.00;99.90;;;;;;4947873;28;20114;-78
2024/01/30 11:10:06;;;;;;;31.20;18.25;;;9.00;99.90;;;;;;4951823;28;20458;-79
2024/01/30 11:12:33;;;;;;;35.53;16.65;;;9.00;99.90;;;;;;4932309;29;20023;-79
2024/01/30 11:15:13;;;;;;;30.90;17.17;;;9.00;99.90;;;;;;4931724;28;20485;-78
2024/01/30 11:17:48;;;;;;;33.65;18.40;;;9.10;99.90;;;;;;4933722;29;20040;-78
2024/01/30 11:20:19;;;;;;;35.75;17.73;;;9.10;99.90;;;;;;4950715;29;20876;-79
2024/01/30 11:22:46;;;;;;;38.80;18.45;;;9.10;99.90;;;;;;4951654;29;20043;-80
2024/01/30 11:25:13;;;;;;;29.17;18.20;;;9.20;99.90;;;;;;4947061;28;20113;-81
2024/01/30 11:27:40;;;;;;;35.08;19.13;;;9.20;99.90;;;;;;4939296;28;20020;-80
2024/01/30 11:30:07;;;;;;;36.33;17.98;;;9.30;99.90;;;;;;4933870;29;20039;-77
2024/01/30 11:32:33;;;;;;;39.72;17.50;;;9.40;99.90;;;;;;4934070;29;20051;-80
2024/01/30 11:34:59;;;;;;;31.88;17.73;;;9.40;99.90;;;;;;4951525;28;20533;-79
2024/01/30 11:37:49;;;;;;;34.90;18.83;;;9.50;99.90;;;;;;4929797;29;20047;-77
2024/01/30 11:40:16;;;;;;;31.85;17.38;;;9.50;99.90;;;;;;4938949;28;20036;-80
2024/01/30 11:42:43;;;;;;;32.90;17.48;;;9.60;99.90;;;;;;4938478;29;20039;-80
2024/01/30 11:45:09;;;;;;;29.00;16.88;;;9.80;99.90;;;;;;4955080;28;20071;-77
2024/01/30 11:47:37;;;;;;;29.88;17.05;;;9.80;99.90;;;;;;4955457;28;20027;-81
2024/01/30 11:50:03;;;;;;;31.65;16.52;;;9.80;99.90;;;;;;4938666;29;20034;-79
2024/01/30 11:52:29;;;;;;;35.90;16.63;;;9.90;99.90;;;;;;4955693;28;20028;-80
2024/01/30 11:54:55;;;;;;;26.02;14.68;;;9.90;99.90;;;;;;4955987;28;20107;-77
2024/01/30 11:57:20;;;;;;;27.60;15.02;;;9.90;99.90;;;;;;4938876;28;20043;-80
2024/01/30 11:59:46;;;;;;;28.67;14.82;;;9.90;99.90;;;;;;4938906;29;20033;-78
2024/01/30 12:02:17;;;;;;;25.63;14.80;;;10.00;99.90;;;;;;4955849;28;20035;-77
2024/01/30 12:04:42;;;;;;;32.95;15.18;;;9.90;99.90;;;;;;4956196;28;20384;-80
2024/01/30 12:07:08;;;;;;;33.05;15.18;;;9.90;99.90;;;;;;4955825;28;20035;-78
2024/01/30 12:09:33;;;;;;;27.42;14.95;;;9.90;99.90;;;;;;4954561;28;20109;-80
2024/01/30 12:11:59;;;;;;;27.33;13.85;;;10.00;99.90;;;;;;4938678;28;20110;-79
2024/01/30 12:14:26;;;;;;;26.10;14.32;;;10.00;99.90;;;;;;4955129;29;20487;-79
2024/01/30 12:16:52;;;;;;;26.58;13.90;;;10.10;99.90;;;;;;4937931;28;20098;-79
2024/01/30 12:19:22;;;;;;;25.30;13.68;;;10.10;99.90;;;;;;4938636;29;20477;-76
2024/01/30 12:21:54;;;;;;;29.20;13.02;;;10.20;99.90;;;;;;4955794;28;20135;-73
2024/01/30 12:24:20;;;;;;;23.30;13.45;;;10.20;99.90;;;;;;4938500;29;20047;-78
2024/01/30 12:26:45;;;;;;;25.98;14.38;;;10.20;99.90;;;;;;4938586;29;20031;-80
2024/01/30 12:29:11;;;;;;;27.02;14.48;;;10.20;99.90;;;;;;4937937;28;20028;-80
2024/01/30 12:31:36;;;;;;;25.33;14.00;;;10.20;99.90;;;;;;4955451;28;20023;-79